Time;durP1;ratioP1;P1;durP2;ratioP2;P2;SDS_P1;SDS_P2;PMS_P1;PMS_P2;Temp;Humidity;BMP_temperature;BMP_pressure;BME280_temperature;BME280_humidity;BME280_pressure;Samples;Min_cycle;Max_cycle;Signal;HPM_P1;HPM_P2
2022/01/30 00:01:07;;;;;;;;;;;6.50;99.90;;;;;;5041409;28;20011;-76
2022/01/30 00:03:33;;;;;;;;;;;6.40;99.90;;;;;;5037339;28;20052;-75
2022/01/30 00:06:00;;;;;;;;;;;6.40;99.90;;;;;;5033292;28;20008;-75
2022/01/30 00:08:26;;;;;;;;;;;6.40;99.90;;;;;;5047691;28;20004;-75
2022/01/30 00:11:00;;;;;;;;;;;6.30;99.90;;;;;;5042050;28;20035;-75
2022/01/30 00:13:28;;;;;;;;;;;6.20;99.90;;;;;;5039181;28;19936;-76
2022/01/30 00:15:55;;;;;;;;;;;6.10;99.90;;;;;;5037709;28;19925;-75
2022/01/30 00:18:39;;;;;;;;;;;6.10;99.90;;;;;;5032117;28;19925;-76
2022/01/30 00:21:11;;;;;;;;;;;6.10;99.90;;;;;;5045544;28;19929;-77
2022/01/30 00:23:39;;;;;;;;;;;6.00;99.90;;;;;;5038209;28;19935;-76
2022/01/30 00:26:09;;;;;;;;;;;6.00;99.90;;;;;;5043419;28;19975;-77
2022/01/30 00:28:35;;;;;;;;;;;6.00;99.90;;;;;;5048080;28;19924;-75
2022/01/30 00:31:02;;;;;;;;;;;5.90;99.90;;;;;;5038014;28;19933;-74
2022/01/30 00:33:29;;;;;;;;;;;5.90;99.90;;;;;;5036391;28;20450;-75
2022/01/30 00:35:55;;;;;;;;;;;5.90;99.90;;;;;;5034998;28;20655;-76
2022/01/30 00:38:23;;;;;;;;;;;5.90;99.90;;;;;;5051009;28;19925;-75
2022/01/30 00:40:50;;;;;;;;;;;5.90;99.90;;;;;;5043229;28;19925;-76
2022/01/30 00:43:18;;;;;;;;;;;5.80;99.90;;;;;;5044734;28;19931;-76
2022/01/30 00:45:45;;;;;;;;;;;5.80;99.90;;;;;;5034170;28;19956;-75
2022/01/30 00:48:12;;;;;;;;;;;5.70;99.90;;;;;;5040206;28;19958;-76
2022/01/30 00:50:39;;;;;;;;;;;5.70;99.90;;;;;;5042817;28;19931;-76
2022/01/30 00:53:06;;;;;;;;;;;5.70;99.90;;;;;;5045537;28;19935;-76
2022/01/30 00:55:33;;;;;;;;;;;5.60;99.90;;;;;;5041784;28;19929;-76
2022/01/30 00:58:00;;;;;;;;;;;5.60;99.90;;;;;;5041379;28;19929;-79
2022/01/30 01:00:28;;;;;;;;;;;5.50;99.90;;;;;;5050658;28;19932;-77
2022/01/30 01:02:55;;;;;;;;;;;5.50;99.90;;;;;;5047608;28;19947;-78
2022/01/30 01:05:22;;;;;;;;;;;5.40;99.90;;;;;;5050281;28;19925;-78
2022/01/30 01:07:50;;;;;;;;;;;5.50;99.90;;;;;;5050677;28;19932;-76
2022/01/30 01:10:27;;;;;;;;;;;5.40;99.90;;;;;;5054868;28;19932;-77
2022/01/30 01:13:08;;;;;;;;;;;5.40;99.90;;;;;;5053610;28;20306;-77
2022/01/30 01:23:23;;;;;;;;;;;5.40;99.90;;;;;;5048262;28;20059;-77
2022/01/30 01:23:50;;;;;;;;;;;5.30;99.90;;;;;;5045468;28;19925;-77
2022/01/30 01:26:17;;;;;;;;;;;5.20;99.90;;;;;;5039960;28;19972;-76
2022/01/30 01:28:45;;;;;;;;;;;5.20;99.90;;;;;;5047120;28;19931;-75
2022/01/30 01:31:13;;;;;;;;;;;5.10;99.90;;;;;;5040704;28;19931;-74
2022/01/30 01:33:52;;;;;;;;;;;5.10;99.90;;;;;;5041955;28;19929;-75
2022/01/30 01:36:19;;;;;;;;;;;5.10;99.90;;;;;;5048316;28;19932;-76
2022/01/30 01:38:46;;;;;;;;;;;5.00;99.90;;;;;;5044670;28;19991;-76
2022/01/30 01:41:15;;;;;;;;;;;5.00;99.90;;;;;;5041670;28;20295;-76
2022/01/30 01:43:41;;;;;;;;;;;4.90;99.90;;;;;;5042099;28;19925;-76
2022/01/30 01:46:14;;;;;;;;;;;4.90;99.90;;;;;;5043490;28;20371;-76
2022/01/30 01:48:45;;;;;;;;;;;4.80;99.90;;;;;;5044460;28;19933;-78
2022/01/30 01:51:17;;;;;;;;;;;4.80;99.90;;;;;;5036816;28;19925;-76
2022/01/30 01:53:44;;;;;;;;;;;4.80;99.90;;;;;;5039065;28;19933;-77
2022/01/30 01:56:12;;;;;;;;;;;4.80;99.90;;;;;;5039934;28;20295;-76
2022/01/30 01:58:39;;;;;;;;;;;4.70;99.90;;;;;;5042043;28;19945;-75
2022/01/30 02:01:06;;;;;;;;;;;4.70;99.90;;;;;;5038267;28;19931;-75
2022/01/30 02:03:35;;;;;;;;;;;4.60;99.90;;;;;;5042932;28;20012;-75
2022/01/30 02:06:04;;;;;;;;;;;4.50;99.90;;;;;;5040673;28;19931;-75
2022/01/30 02:08:35;;;;;;;;;;;4.40;99.90;;;;;;5042553;28;19929;-75
2022/01/30 02:11:05;;;;;;;;;;;4.40;99.90;;;;;;5041247;28;20650;-75
2022/01/30 02:13:48;;;;;;;;;;;4.50;99.90;;;;;;5043790;28;19925;-75
2022/01/30 02:24:39;;;;;;;;;;;4.40;99.90;;;;;;5051545;28;20518;-78
2022/01/30 02:27:06;;;;;;;;;;;4.40;99.90;;;;;;5036842;28;19932;-76
2022/01/30 02:29:33;;;;;;;;;;;4.30;99.90;;;;;;5056512;28;19925;-75
2022/01/30 02:32:01;;;;;;;;;;;4.20;99.90;;;;;;5047904;28;20019;-76
2022/01/30 02:34:31;;;;;;;;;;;4.20;99.90;;;;;;5048801;28;19925;-76
2022/01/30 02:36:58;;;;;;;;;;;4.20;99.90;;;;;;5043899;28;20027;-76
2022/01/30 02:39:25;;;;;;;;;;;4.10;99.90;;;;;;5046795;28;19955;-77
2022/01/30 02:41:53;;;;;;;;;;;4.10;99.90;;;;;;5044241;28;19959;-76
2022/01/30 02:44:24;;;;;;;;;;;4.10;99.90;;;;;;5053542;28;20318;-76
2022/01/30 02:46:53;;;;;;;;;;;4.00;99.90;;;;;;5046615;28;20396;-77
2022/01/30 02:49:43;;;;;;;;;;;4.00;99.90;;;;;;5052022;28;20379;-75
2022/01/30 02:52:11;;;;;;;;;;;3.90;99.90;;;;;;5049685;28;20314;-75
2022/01/30 02:54:38;;;;;;;;;;;4.00;99.90;;;;;;5040801;28;20380;-75
2022/01/30 02:57:06;;;;;;;;;;;3.90;99.90;;;;;;5036519;28;19958;-75
2022/01/30 02:59:33;;;;;;;;;;;3.90;99.90;;;;;;5052037;28;19928;-75
2022/01/30 03:02:01;;;;;;;;;;;3.90;99.90;;;;;;5038158;28;19945;-75
2022/01/30 03:04:27;;;;;;;;;;;3.90;99.90;;;;;;5039422;28;19932;-75
2022/01/30 03:06:54;;;;;;;;;;;3.90;99.90;;;;;;5046278;28;19925;-75
2022/01/30 03:09:21;;;;;;;;;;;3.90;99.90;;;;;;5044190;28;19928;-74
2022/01/30 03:11:47;;;;;;;;;;;3.80;99.90;;;;;;5048931;28;19963;-74
2022/01/30 03:14:15;;;;;;;;;;;3.80;99.90;;;;;;5039500;28;19932;-75
2022/01/30 03:16:42;;;;;;;;;;;3.80;99.90;;;;;;5042398;28;19925;-75
2022/01/30 03:19:08;;;;;;;;;;;3.80;99.90;;;;;;5047975;28;19931;-75
2022/01/30 03:21:35;;;;;;;;;;;3.80;99.90;;;;;;5035999;28;19928;-76
2022/01/30 03:24:02;;;;;;;;;;;3.80;99.90;;;;;;5033961;28;19980;-76
2022/01/30 03:26:35;;;;;;;;;;;3.70;99.90;;;;;;5047764;28;20435;-76
2022/01/30 03:29:05;;;;;;;;;;;3.70;99.90;;;;;;5042562;28;19926;-76
2022/01/30 03:31:33;;;;;;;;;;;3.80;99.90;;;;;;5046750;28;19932;-76
2022/01/30 03:34:00;;;;;;;;;;;3.80;99.90;;;;;;5043864;28;19924;-76
2022/01/30 03:36:26;;;;;;;;;;;3.80;99.90;;;;;;5039919;28;19937;-76
2022/01/30 03:38:53;;;;;;;;;;;3.80;99.90;;;;;;5046012;28;19939;-76
2022/01/30 03:41:20;;;;;;;;;;;3.70;99.90;;;;;;5049186;28;19993;-76
2022/01/30 03:43:46;;;;;;;;;;;3.70;99.90;;;;;;5039064;28;20307;-75
2022/01/30 03:46:13;;;;;;;;;;;3.70;99.90;;;;;;5038438;28;19925;-75
2022/01/30 03:48:41;;;;;;;;;;;3.70;99.90;;;;;;5037312;28;20015;-75
2022/01/30 03:51:07;;;;;;;;;;;3.70;99.90;;;;;;5038417;28;19958;-75
2022/01/30 03:53:34;;;;;;;;;;;3.70;99.90;;;;;;5033764;28;19935;-76
2022/01/30 03:56:01;;;;;;;;;;;3.70;99.90;;;;;;5040234;28;19933;-75
2022/01/30 03:58:27;;;;;;;;;;;3.70;99.90;;;;;;5038134;28;19936;-75
2022/01/30 04:00:54;;;;;;;;;;;3.70;99.90;;;;;;5033154;28;20372;-76
2022/01/30 04:03:21;;;;;;;;;;;3.70;99.90;;;;;;5037116;28;19955;-76
2022/01/30 04:05:49;;;;;;;;;;;3.70;99.90;;;;;;5037911;28;19933;-74
2022/01/30 04:08:15;;;;;;;;;;;3.60;99.90;;;;;;5036221;28;19925;-74
2022/01/30 04:10:43;;;;;;;;;;;3.60;99.90;;;;;;5040511;28;19931;-75
2022/01/30 04:13:09;;;;;;;;;;;3.60;99.90;;;;;;5039445;28;19933;-74
2022/01/30 04:15:37;;;;;;;;;;;3.60;99.90;;;;;;5035778;28;19940;-75
2022/01/30 04:18:04;;;;;;;;;;;3.50;99.90;;;;;;5036130;28;19932;-75
2022/01/30 04:20:30;;;;;;;;;;;3.60;99.90;;;;;;5041616;28;19932;-75
2022/01/30 04:22:58;;;;;;;;;;;3.60;99.90;;;;;;5032990;28;20376;-74
2022/01/30 04:25:25;;;;;;;;;;;3.60;99.90;;;;;;5033646;28;20302;-75
2022/01/30 04:27:52;;;;;;;;;;;3.60;99.90;;;;;;5037469;28;19925;-75
2022/01/30 04:30:19;;;;;;;;;;;3.60;99.90;;;;;;5040247;28;19925;-75
2022/01/30 04:32:46;;;;;;;;;;;3.60;99.90;;;;;;5044068;28;19939;-74
2022/01/30 04:35:17;;;;;;;;;;;3.60;99.90;;;;;;5038844;28;19929;-75
2022/01/30 04:37:57;;;;;;;;;;;3.50;99.90;;;;;;5052053;28;19925;-75
2022/01/30 04:41:05;;;;;;;;;;;3.50;99.90;;;;;;5042139;28;19925;-75
2022/01/30 04:55:14;;;;;;;;;;;3.50;99.90;;;;;;5042055;28;19948;-76
2022/01/30 04:57:47;;;;;;;;;;;3.50;99.90;;;;;;5041816;28;19970;-75
2022/01/30 05:03:23;;;;;;;;;;;3.60;99.90;;;;;;5039208;28;19925;-75
2022/01/30 05:06:00;;;;;;;;;;;3.70;99.90;;;;;;5037186;28;19933;-74
2022/01/30 05:08:27;;;;;;;;;;;3.60;99.90;;;;;;5040705;28;19968;-74
2022/01/30 05:10:54;;;;;;;;;;;3.70;99.90;;;;;;5044848;28;20011;-74
2022/01/30 05:13:25;;;;;;;;;;;3.60;99.90;;;;;;5042712;28;19936;-74
2022/01/30 05:15:52;;;;;;;;;;;3.60;99.90;;;;;;5035527;28;19957;-74
2022/01/30 05:18:19;;;;;;;;;;;3.70;99.90;;;;;;5052193;28;19948;-74
2022/01/30 05:20:46;;;;;;;;;;;3.70;99.90;;;;;;5043697;28;19931;-74
2022/01/30 05:23:13;;;;;;;;;;;3.70;99.90;;;;;;5041346;28;19933;-74
2022/01/30 05:25:40;;;;;;;;;;;3.80;99.90;;;;;;5039854;28;19931;-74
2022/01/30 05:28:08;;;;;;;;;;;3.80;99.90;;;;;;5040344;28;19925;-75
2022/01/30 05:30:37;;;;;;;;;;;3.80;99.90;;;;;;5038549;28;19929;-74
2022/01/30 05:33:04;;;;;;;;;;;3.80;99.90;;;;;;5049964;28;19931;-74
2022/01/30 05:35:31;;;;;;;;;;;3.70;99.90;;;;;;5051540;28;19925;-74
2022/01/30 05:37:58;;;;;;;;;;;3.70;99.90;;;;;;5045300;28;19933;-74
2022/01/30 05:40:24;;;;;;;;;;;3.60;99.90;;;;;;5042254;28;19940;-74
2022/01/30 05:42:51;;;;;;;;;;;3.70;99.90;;;;;;5037667;28;19948;-75
2022/01/30 05:45:25;;;;;;;;;;;3.70;99.90;;;;;;5034869;28;19931;-75
2022/01/30 05:47:58;;;;;;;;;;;3.70;99.90;;;;;;5045263;28;19928;-75
2022/01/30 05:50:25;;;;;;;;;;;3.70;99.90;;;;;;5038461;28;19925;-74
2022/01/30 05:52:51;;;;;;;;;;;3.70;99.90;;;;;;5038984;28;20016;-75
2022/01/30 05:55:18;;;;;;;;;;;3.70;99.90;;;;;;5046869;28;19932;-74
2022/01/30 05:57:45;;;;;;;;;;;3.60;99.90;;;;;;5047734;28;19939;-75
2022/01/30 06:00:14;;;;;;;;;;;3.60;99.90;;;;;;5043742;28;20012;-75
2022/01/30 06:02:41;;;;;;;;;;;3.60;99.90;;;;;;5037518;28;20388;-76
2022/01/30 06:05:09;;;;;;;;;;;3.50;99.90;;;;;;5050177;28;19935;-75
2022/01/30 06:07:45;;;;;;;;;;;3.50;99.90;;;;;;5046088;28;19925;-75
2022/01/30 06:10:11;;;;;;;;;;;3.40;99.90;;;;;;5042146;28;19933;-73
2022/01/30 06:12:38;;;;;;;;;;;3.30;99.90;;;;;;5038551;28;19932;-75
2022/01/30 06:15:05;;;;;;;;;;;3.30;99.90;;;;;;5049555;28;19924;-75
2022/01/30 06:17:32;;;;;;;;;;;3.30;99.90;;;;;;5037575;28;19929;-74
2022/01/30 06:19:58;;;;;;;;;;;3.30;99.90;;;;;;5043004;28;20031;-74
2022/01/30 06:22:26;;;;;;;;;;;3.40;99.90;;;;;;5039553;28;19925;-75
2022/01/30 06:24:53;;;;;;;;;;;3.50;99.90;;;;;;5042306;28;19943;-74
2022/01/30 06:27:20;;;;;;;;;;;3.40;99.90;;;;;;5037774;28;19972;-75
2022/01/30 06:29:47;;;;;;;;;;;3.50;99.90;;;;;;5036377;28;19932;-74
2022/01/30 06:32:14;;;;;;;;;;;3.50;99.90;;;;;;5037828;28;19929;-75
2022/01/30 06:34:40;;;;;;;;;;;3.40;99.90;;;;;;5040415;28;19925;-74
2022/01/30 06:37:07;;;;;;;;;;;3.30;99.90;;;;;;5038739;28;19948;-75
2022/01/30 06:39:35;;;;;;;;;;;3.30;99.90;;;;;;5034517;28;19925;-76
2022/01/30 06:42:02;;;;;;;;;;;3.30;99.90;;;;;;5040722;28;20270;-76
2022/01/30 06:44:28;;;;;;;;;;;3.20;99.90;;;;;;5042910;28;19932;-76
2022/01/30 06:46:55;;;;;;;;;;;3.20;99.90;;;;;;5043734;28;19968;-76
2022/01/30 06:49:22;;;;;;;;;;;3.30;99.90;;;;;;5036362;28;19971;-75
2022/01/30 06:51:48;;;;;;;;;;;3.20;99.90;;;;;;5043330;28;19932;-75
2022/01/30 06:54:15;;;;;;;;;;;3.20;99.90;;;;;;5045163;28;19932;-75
2022/01/30 06:56:43;;;;;;;;;;;3.20;99.90;;;;;;5042512;28;19925;-75
2022/01/30 06:59:10;;;;;;;;;;;3.20;99.90;;;;;;5044430;28;19935;-76
2022/01/30 07:01:36;;;;;;;;;;;3.30;99.90;;;;;;5046010;28;19925;-75
2022/01/30 07:04:03;;;;;;;;;;;3.30;99.90;;;;;;5046229;28;20007;-74
2022/01/30 07:06:33;;;;;;;;;;;3.30;99.90;;;;;;5037335;28;19971;-75
2022/01/30 07:08:59;;;;;;;;;;;3.40;99.90;;;;;;5048892;28;19944;-75
2022/01/30 07:11:26;;;;;;;;;;;3.40;99.90;;;;;;5045317;28;19925;-75
2022/01/30 07:13:54;;;;;;;;;;;3.40;99.90;;;;;;5043317;28;20303;-76
2022/01/30 07:16:20;;;;;;;;;;;3.30;99.90;;;;;;5045198;28;20265;-75
2022/01/30 07:18:47;;;;;;;;;;;3.30;99.90;;;;;;5036894;28;20012;-75
2022/01/30 07:21:14;;;;;;;;;;;3.30;99.90;;;;;;5034650;28;19931;-76
2022/01/30 07:23:41;;;;;;;;;;;3.30;99.90;;;;;;5042738;28;19924;-74
2022/01/30 07:26:08;;;;;;;;;;;3.30;99.90;;;;;;5037632;28;19925;-75
2022/01/30 07:28:35;;;;;;;;;;;3.30;99.90;;;;;;5044527;28;19935;-76
2022/01/30 07:31:03;;;;;;;;;;;3.30;99.90;;;;;;5041158;28;19925;-76
2022/01/30 07:33:29;;;;;;;;;;;3.40;99.90;;;;;;5038017;28;19940;-75
2022/01/30 07:35:57;;;;;;;;;;;3.40;99.90;;;;;;5041660;28;20020;-75
2022/01/30 07:38:24;;;;;;;;;;;3.50;99.90;;;;;;5044026;28;19937;-75
2022/01/30 07:40:51;;;;;;;;;;;3.50;99.90;;;;;;5042198;28;19925;-75
2022/01/30 07:43:18;;;;;;;;;;;3.50;99.90;;;;;;5039583;28;19933;-75
2022/01/30 07:45:44;;;;;;;;;;;3.50;99.90;;;;;;5048097;28;19931;-77
2022/01/30 07:48:12;;;;;;;;;;;3.40;99.90;;;;;;5035947;28;20000;-74
2022/01/30 07:50:39;;;;;;;;;;;3.40;99.90;;;;;;5036298;28;19947;-74
2022/01/30 07:53:06;;;;;;;;;;;3.40;99.90;;;;;;5035764;28;19932;-76
2022/01/30 07:55:32;;;;;;;;;;;3.50;99.90;;;;;;5038935;28;19933;-74
2022/01/30 07:57:59;;;;;;;;;;;3.50;99.90;;;;;;5048157;28;19925;-74
2022/01/30 08:00:26;;;;;;;;;;;3.60;99.90;;;;;;5036487;28;19931;-74
2022/01/30 08:02:52;;;;;;;;;;;3.80;99.90;;;;;;5038797;28;19932;-75
2022/01/30 08:05:21;;;;;;;;;;;3.80;99.90;;;;;;5040434;28;19925;-75
2022/01/30 08:07:47;;;;;;;;;;;3.80;99.90;;;;;;5037676;28;19925;-74
2022/01/30 08:10:14;;;;;;;;;;;3.90;99.90;;;;;;5041257;28;20372;-75
2022/01/30 08:12:40;;;;;;;;;;;3.90;99.90;;;;;;5046290;28;20399;-76
2022/01/30 08:15:08;;;;;;;;;;;4.00;99.90;;;;;;5040103;28;20380;-75
2022/01/30 08:17:36;;;;;;;;;;;4.00;99.90;;;;;;5047872;28;19924;-75
2022/01/30 08:20:03;;;;;;;;;;;4.10;99.90;;;;;;5047933;28;19932;-75
2022/01/30 08:22:32;;;;;;;;;;;4.20;99.90;;;;;;5049856;28;19931;-76
2022/01/30 08:24:58;;;;;;;;;;;4.20;99.90;;;;;;5037656;28;20023;-76
2022/01/30 08:27:25;;;;;;;;;;;4.30;99.90;;;;;;5036306;28;19939;-75
2022/01/30 08:29:52;;;;;;;;;;;4.40;99.90;;;;;;5036353;28;19925;-75
2022/01/30 08:32:18;;;;;;;;;;;4.50;99.90;;;;;;5041282;28;19932;-75
2022/01/30 08:34:46;;;;;;;;;;;4.40;99.90;;;;;;5033898;28;19925;-75
2022/01/30 08:37:12;;;;;;;;;;;4.30;99.90;;;;;;5036863;28;20354;-77
2022/01/30 08:39:40;;;;;;;;;;;4.20;99.90;;;;;;5045613;22;19968;-76
2022/01/30 08:42:07;;;;;;;;;;;4.20;99.90;;;;;;5023780;28;19932;-76
2022/01/30 08:44:34;;;;;;;;;;;4.20;99.90;;;;;;5028239;28;20308;-76
2022/01/30 08:47:01;;;;;;;;;;;4.20;99.90;;;;;;5023609;28;19925;-77
2022/01/30 08:49:27;;;;;;;;;;;4.10;99.90;;;;;;5017504;28;20091;-76
2022/01/30 08:51:54;;;;;;;;;;;4.00;99.90;;;;;;5023511;28;19929;-77
2022/01/30 08:54:21;;;;;;;;;;;4.20;99.90;;;;;;5017705;28;20017;-76
2022/01/30 08:56:48;;;;;;;;;;;4.90;99.90;;;;;;5023971;28;19933;-76
2022/01/30 08:59:15;;;;;;;;;;;5.90;99.90;;;;;;5025964;28;19925;-75
2022/01/30 09:01:42;;;;;;;;;;;6.80;99.90;;;;;;5013917;28;20003;-75
2022/01/30 09:04:11;;;;;;;;;;;7.50;99.90;;;;;;5018023;28;19926;-75
2022/01/30 09:06:38;;;;;;;;;;;8.00;99.90;;;;;;5019479;28;19929;-75
2022/01/30 09:09:05;;;;;;;;;;;8.00;99.90;;;;;;5024710;28;20083;-74
2022/01/30 09:11:33;;;;;;;;;;;8.00;99.90;;;;;;5026431;28;20448;-75
2022/01/30 09:14:01;;;;;;;;;;;7.70;99.90;;;;;;5028890;28;19994;-74
2022/01/30 09:16:28;;;;;;;;;;;7.80;99.90;;;;;;5013196;28;19956;-76
2022/01/30 09:18:56;;;;;;;;;;;7.90;99.90;;;;;;5020168;28;19955;-74
2022/01/30 09:21:23;;;;;;;;;;;8.60;99.90;;;;;;5023327;28;19929;-75
2022/01/30 09:23:49;;;;;;;;;;;9.10;99.30;;;;;;5020215;28;19932;-75
2022/01/30 09:26:16;;;;;;;;;;;9.20;98.10;;;;;;5033227;28;19939;-76
2022/01/30 09:28:42;;;;;;;;;;;8.90;98.00;;;;;;5026685;28;19925;-76
2022/01/30 09:31:10;;;;;;;;;;;9.20;97.90;;;;;;5020152;28;19926;-75
2022/01/30 09:33:37;;;;;;;;;;;8.60;98.10;;;;;;5028233;28;19932;-75
2022/01/30 09:36:04;;;;;;;;;;;8.20;98.50;;;;;;5026497;28;19926;-75
2022/01/30 09:38:31;;;;;;;;;;;8.40;99.10;;;;;;5020658;28;19952;-75
2022/01/30 09:40:58;;;;;;;;;;;9.10;98.50;;;;;;5012334;28;19926;-76
2022/01/30 09:43:25;;;;;;;;;;;8.70;97.60;;;;;;5020502;28;19933;-76
2022/01/30 09:45:52;;;;;;;;;;;8.00;98.40;;;;;;5020071;28;19932;-75
2022/01/30 09:48:22;;;;;;;;;;;7.20;99.60;;;;;;5023544;28;19926;-75
2022/01/30 09:50:50;;;;;;;;;;;6.80;99.90;;;;;;5021425;28;19925;-75
2022/01/30 09:53:17;;;;;;;;;;;6.50;99.90;;;;;;5015397;28;19941;-75
2022/01/30 09:55:44;;;;;;;;;;;6.50;99.90;;;;;;5026760;28;19929;-75
2022/01/30 09:58:10;;;;;;;;;;;6.40;99.90;;;;;;5022548;28;19925;-75
2022/01/30 10:00:37;;;;;;;;;;;6.40;99.90;;;;;;5022401;28;19932;-75
2022/01/30 10:03:04;;;;;;;;;;;6.50;99.90;;;;;;5025780;28;19925;-75
2022/01/30 10:05:35;;;;;;;;;;;6.60;99.90;;;;;;5024624;28;19925;-76
2022/01/30 10:08:03;;;;;;;;;;;6.60;99.90;;;;;;5024358;28;20270;-75
2022/01/30 10:10:30;;;;;;;;;;;6.70;99.90;;;;;;5029788;28;19933;-75
2022/01/30 10:13:01;;;;;;;;;;;6.80;99.90;;;;;;5025052;28;19978;-75
2022/01/30 10:15:28;;;;;;;;;;;6.80;99.90;;;;;;5027632;28;20012;-75
2022/01/30 10:17:55;;;;;;;;;;;6.80;99.90;;;;;;5030548;28;19979;-74
2022/01/30 10:20:24;;;;;;;;;;;6.80;99.90;;;;;;5026942;28;19936;-74
2022/01/30 10:22:53;;;;;;;;;;;6.80;99.90;;;;;;5022039;28;19980;-75
2022/01/30 10:25:23;;;;;;;;;;;6.80;99.90;;;;;;5032497;28;19926;-76
2022/01/30 10:27:53;;;;;;;;;;;6.90;99.90;;;;;;5022848;28;19925;-76
2022/01/30 10:30:21;;;;;;;;;;;7.00;99.90;;;;;;5013751;28;19926;-78
2022/01/30 10:32:54;;;;;;;;;;;7.00;99.90;;;;;;5022675;28;19929;-76
2022/01/30 10:35:21;;;;;;;;;;;7.00;99.90;;;;;;5019278;28;19983;-77
2022/01/30 10:37:47;;;;;;;;;;;7.10;99.90;;;;;;5018290;28;19972;-76
2022/01/30 10:40:18;;;;;;;;;;;7.10;99.90;;;;;;5020567;28;19975;-76
2022/01/30 10:42:46;;;;;;;;;;;7.10;99.90;;;;;;5014492;28;19929;-76
2022/01/30 10:45:13;;;;;;;;;;;7.20;99.90;;;;;;5018216;28;19968;-77
2022/01/30 10:47:40;;;;;;;;;;;7.30;99.90;;;;;;5023207;28;19936;-78
2022/01/30 10:50:15;;;;;;;;;;;7.40;99.90;;;;;;5024678;28;19956;-77
2022/01/30 10:52:55;;;;;;;;;;;7.70;99.90;;;;;;5023841;28;19934;-76
2022/01/30 10:55:33;;;;;;;;;;;8.00;99.90;;;;;;5018439;28;19931;-76
2022/01/30 10:58:00;;;;;;;;;;;7.80;99.90;;;;;;5022353;28;20392;-76
2022/01/30 11:00:36;;;;;;;;;;;7.70;99.90;;;;;;5028628;28;20016;-77
2022/01/30 11:03:02;;;;;;;;;;;7.70;99.90;;;;;;5027531;28;20375;-76
2022/01/30 11:05:29;;;;;;;;;;;7.80;99.90;;;;;;5025522;28;20252;-76
2022/01/30 11:07:57;;;;;;;;;;;7.90;99.90;;;;;;5030571;28;19951;-76
2022/01/30 11:10:26;;;;;;;;;;;8.00;99.90;;;;;;5032285;28;20575;-76
2022/01/30 11:13:07;;;;;;;;;;;8.20;99.90;;;;;;5033926;28;19928;-76
2022/01/30 11:15:37;;;;;;;;;;;8.40;99.90;;;;;;5032044;28;19943;-78
2022/01/30 11:18:04;;;;;;;;;;;8.60;99.90;;;;;;5027641;28;20352;-77
2022/01/30 11:20:32;;;;;;;;;;;8.40;99.90;;;;;;5028310;28;20375;-76
2022/01/30 11:23:00;;;;;;;;;;;8.40;99.90;;;;;;5025570;28;19933;-74
2022/01/30 11:25:33;;;;;;;;;;;8.50;99.90;;;;;;5026619;28;19980;-74
2022/01/30 11:28:03;;;;;;;;;;;8.60;99.90;;;;;;5017748;28;19972;-77
2022/01/30 11:30:31;;;;;;;;;;;8.70;99.90;;;;;;5011490;28;19929;-76
2022/01/30 11:32:58;;;;;;;;;;;8.70;99.80;;;;;;5015987;28;19933;-75
2022/01/30 11:35:25;;;;;;;;;;;8.80;99.60;;;;;;5018949;28;19933;-74
2022/01/30 11:37:51;;;;;;;;;;;8.80;99.20;;;;;;5016519;28;20082;-76
2022/01/30 11:40:19;;;;;;;;;;;8.80;99.50;;;;;;5019404;28;19929;-74
2022/01/30 11:42:49;;;;;;;;;;;8.80;99.00;;;;;;5013707;28;20299;-75
2022/01/30 11:45:18;;;;;;;;;;;8.90;98.60;;;;;;5010931;28;20460;-75
2022/01/30 11:47:46;;;;;;;;;;;8.90;97.90;;;;;;5015804;28;19933;-75
2022/01/30 11:50:13;;;;;;;;;;;8.70;98.00;;;;;;5015922;28;19993;-76
2022/01/30 11:52:53;;;;;;;;;;;8.60;98.50;;;;;;5030425;28;20016;-79
2022/01/30 11:55:54;;;;;;;;;;;8.50;98.20;;;;;;5026931;28;19940;-75
2022/01/30 11:58:43;;;;;;;;;;;8.40;98.40;;;;;;4941007;29;20426;-77
2022/01/30 12:01:34;;;;;;;;;;;8.20;99.00;;;;;;4935327;28;20412;-76
2022/01/30 12:04:02;;;;;;;;;;;8.10;99.60;;;;;;4998040;28;19925;-76
2022/01/30 12:06:30;;;;;;;;;;;7.90;99.90;;;;;;5022018;28;19936;-76
2022/01/30 12:08:57;;;;;;;;;;;7.80;99.60;;;;;;5015794;28;20416;-77
2022/01/30 12:11:47;;;;;;;;;;;7.80;99.90;;;;;;5013328;28;19929;-76
2022/01/30 12:14:29;;;;;;;;;;;7.90;99.50;;;;;;5027225;28;19932;-76
2022/01/30 12:17:00;;;;;;;;;;;8.10;98.30;;;;;;5019524;28;19925;-75
2022/01/30 12:19:41;;;;;;;;;;;8.10;97.90;;;;;;5013182;28;19932;-76
2022/01/30 12:22:25;;;;;;;;;;;8.10;97.70;;;;;;5023953;28;19936;-74
2022/01/30 12:24:53;;;;;;;;;;;7.90;97.40;;;;;;5013755;28;19926;-75
2022/01/30 12:27:19;;;;;;;;;;;7.90;97.40;;;;;;5014052;28;20028;-77
2022/01/30 12:29:47;;;;;;;;;;;7.90;97.00;;;;;;5016431;28;19929;-77
2022/01/30 12:32:30;;;;;;;;;;;8.00;97.10;;;;;;5016904;28;19925;-76
2022/01/30 12:35:02;;;;;;;;;;;7.90;97.20;;;;;;5019222;28;19986;-77
2022/01/30 12:37:30;;;;;;;;;;;8.10;97.50;;;;;;5024901;28;19929;-76
2022/01/30 12:39:57;;;;;;;;;;;8.10;97.40;;;;;;5014249;28;20394;-76
2022/01/30 12:42:25;;;;;;;;;;;8.10;97.40;;;;;;5012845;28;19925;-76
2022/01/30 12:44:52;;;;;;;;;;;8.10;96.70;;;;;;5017704;28;20055;-76
2022/01/30 12:47:21;;;;;;;;;;;8.00;96.90;;;;;;5019245;28;19944;-78
2022/01/30 12:49:51;;;;;;;;;;;7.80;97.30;;;;;;5018613;28;19980;-77
2022/01/30 12:52:29;;;;;;;;;;;7.80;97.60;;;;;;5014912;28;19978;-76
2022/01/30 12:54:57;;;;;;;;;;;7.70;98.10;;;;;;5024202;28;19929;-77
2022/01/30 12:57:26;;;;;;;;;;;7.70;98.70;;;;;;5024526;28;20204;-79
2022/01/30 12:59:53;;;;;;;;;;;7.70;99.10;;;;;;5025135;28;19934;-77
2022/01/30 13:02:21;;;;;;;;;;;7.80;99.00;;;;;;5023706;28;19925;-76
2022/01/30 13:04:58;;;;;;;;;;;7.70;98.80;;;;;;5022308;28;19964;-75
2022/01/30 13:07:25;;;;;;;;;;;7.70;98.80;;;;;;5021300;28;20912;-75
2022/01/30 13:10:03;;;;;;;;;;;7.70;98.90;;;;;;5022096;28;20494;-76
2022/01/30 13:12:31;;;;;;;;;;;7.90;98.70;;;;;;5018780;28;20029;-77
2022/01/30 13:15:01;;;;;;;;;;;8.10;98.10;;;;;;5025598;28;19996;-79
2022/01/30 13:17:30;;;;;;;;;;;8.40;97.80;;;;;;5024973;28;20311;-78
2022/01/30 13:19:57;;;;;;;;;;;8.40;95.80;;;;;;5024162;28;19930;-72
2022/01/30 13:22:29;;;;;;;;;;;8.40;95.10;;;;;;5021873;28;19925;-72
2022/01/30 13:24:58;;;;;;;;;;;8.30;95.40;;;;;;5025219;28;19933;-73
2022/01/30 13:27:25;;;;;;;;;;;8.20;95.90;;;;;;5022392;28;20064;-71
2022/01/30 13:29:53;;;;;;;;;;;8.10;96.20;;;;;;5021901;28;19944;-75
2022/01/30 13:32:20;;;;;;;;;;;8.10;96.30;;;;;;5023043;28;20016;-75
2022/01/30 13:34:49;;;;;;;;;;;8.20;95.80;;;;;;5023957;28;19929;-75
2022/01/30 13:37:16;;;;;;;;;;;8.20;95.70;;;;;;5024790;28;20741;-75
2022/01/30 13:39:47;;;;;;;;;;;8.30;95.80;;;;;;5027616;28;19925;-75
2022/01/30 13:42:35;;;;;;;;;;;8.20;95.40;;;;;;5021468;28;19933;-75
2022/01/30 13:46:55;;;;;;;;;;;8.20;95.70;;;;;;5026962;28;19932;-76
2022/01/30 13:47:54;;;;;;;;;;;8.10;95.80;;;;;;5015808;28;19932;-75
2022/01/30 13:50:24;;;;;;;;;;;8.10;96.00;;;;;;5020946;28;19921;-77
2022/01/30 13:52:59;;;;;;;;;;;8.10;96.30;;;;;;5019111;28;19984;-76
2022/01/30 13:55:26;;;;;;;;;;;8.00;96.30;;;;;;5011249;28;20406;-76
2022/01/30 13:57:57;;;;;;;;;;;8.00;96.00;;;;;;5005195;28;19933;-76
2022/01/30 14:00:23;;;;;;;;;;;7.90;95.70;;;;;;5004714;28;19933;-76
2022/01/30 14:02:53;;;;;;;;;;;7.90;95.30;;;;;;5003282;28;19945;-75
2022/01/30 14:05:26;;;;;;;;;;;7.80;94.80;;;;;;5002570;28;19929;-75
2022/01/30 14:07:53;;;;;;;;;;;7.80;94.40;;;;;;5022919;28;20035;-76
2022/01/30 14:10:21;;;;;;;;;;;7.70;94.50;;;;;;5018045;28;19925;-74
2022/01/30 14:12:49;;;;;;;;;;;7.70;94.60;;;;;;5017875;28;20064;-77
2022/01/30 14:15:18;;;;;;;;;;;7.60;94.70;;;;;;5020854;28;19930;-78
2022/01/30 14:17:45;;;;;;;;;;;7.50;94.80;;;;;;5021484;28;19976;-76
2022/01/30 14:20:13;;;;;;;;;;;7.40;95.00;;;;;;5021842;28;20605;-83
2022/01/30 14:22:44;;;;;;;;;;;7.40;95.20;;;;;;5020107;28;19925;-85
2022/01/30 14:25:18;;;;;;;;;;;7.30;95.30;;;;;;5023304;28;20020;-87
2022/01/30 14:27:45;;;;;;;;;;;7.20;95.30;;;;;;5023275;28;20140;-76
2022/01/30 14:30:12;;;;;;;;;;;7.30;95.40;;;;;;5020697;28;19961;-77
2022/01/30 14:32:41;;;;;;;;;;;7.30;95.40;;;;;;5003862;28;20470;-76
2022/01/30 14:35:09;;;;;;;;;;;7.50;95.40;;;;;;5017760;28;19931;-77
2022/01/30 14:37:36;;;;;;;;;;;7.60;95.40;;;;;;5016296;28;19976;-77
2022/01/30 14:40:06;;;;;;;;;;;7.70;95.00;;;;;;5019636;28;20392;-75
2022/01/30 14:42:33;;;;;;;;;;;7.80;94.40;;;;;;5024226;28;19929;-75
2022/01/30 14:44:59;;;;;;;;;;;7.90;93.90;;;;;;5019687;28;20387;-78
2022/01/30 14:47:29;;;;;;;;;;;8.00;93.80;;;;;;5021775;28;19935;-77
2022/01/30 14:49:56;;;;;;;;;;;8.10;93.20;;;;;;5017670;28;19932;-76
2022/01/30 14:52:22;;;;;;;;;;;8.10;92.90;;;;;;5019339;28;19925;-76
2022/01/30 14:54:49;;;;;;;;;;;8.00;93.00;;;;;;5010429;28;19949;-76
2022/01/30 14:57:21;;;;;;;;;;;7.90;93.10;;;;;;5021662;28;19933;-76
2022/01/30 14:59:48;;;;;;;;;;;7.80;92.90;;;;;;5016479;28;19931;-76
2022/01/30 15:02:15;;;;;;;;;;;7.70;93.00;;;;;;5022796;28;19925;-77
2022/01/30 15:04:42;;;;;;;;;;;7.60;93.20;;;;;;5023384;28;19971;-79
2022/01/30 15:07:09;;;;;;;;;;;7.60;93.50;;;;;;5019034;28;19936;-77
2022/01/30 15:09:35;;;;;;;;;;;7.50;93.70;;;;;;5018375;28;20361;-75